Time,TemperatureF,DewpointF,PressureIn,WindDirection,WindDirectionDegrees,WindSpeedMPH,WindSpeedGustMPH,Humidity,HourlyPrecipIn,Conditions,Clouds,dailyrainin,SoftwareType,DateUTC
2013-05-01 00:14:00,46.9,29.0,30.34,SSW,202,0.0,-999.0,51,-99.99,,,0.00,weatherlink.com 1.10,2013-05-01 04:14:00,
2013-05-01 00:29:00,46.3,29.0,30.35,SSW,202,0.0,-999.0,51,-99.99,,,0.00,weatherlink.com 1.10,2013-05-01 04:29:00,
2013-05-01 00:44:00,45.4,29.0,30.35,SSW,202,0.0,-999.0,52,-99.99,,,0.00,weatherlink.com 1.10,2013-05-01 04:44:00,
2013-05-01 00:59:00,45.0,29.0,30.35,SSW,202,0.0,-999.0,53,-99.99,,,0.00,weatherlink.com 1.10,2013-05-01 04:59:00,
2013-05-01 01:14:00,44.4,29.0,30.35,SSW,202,0.0,-999.0,54,-99.99,,,0.00,weatherlink.com 1.10,2013-05-01 05:14:00,
2013-05-01 01:29:00,43.8,30.0,30.35,SSW,202,0.0,-999.0,58,-99.99,,,0.00,weatherlink.com 1.10,2013-05-01 05:29:00,
2013-05-01 01:44:00,44.3,28.0,30.35,SSW,202,0.0,-999.0,54,-99.99,,,0.00,weatherlink.com 1.10,2013-05-01 05:44:00,
2013-05-01 01:59:00,44.4,28.0,30.36,SSW,202,0.0,-999.0,52,-99.99,,,0.00,weatherlink.com 1.10,2013-05-01 05:59:00,
2013-05-01 02:14:00,44.7,28.0,30.36,SSW,202,0.0,-999.0,53,-99.99,,,0.00,weatherlink.com 1.10,2013-05-01 06:14:00,
2013-05-01 02:29:00,44.6,28.0,30.36,SSW,202,0.0,-999.0,53,-99.99,,,0.00,weatherlink.com 1.10,2013-05-01 06:29:00,
2013-05-01 02:44:00,44.3,29.0,30.36,SSW,202,0.0,-999.0,55,-99.99,,,0.00,weatherlink.com 1.10,2013-05-01 06:44:00,
2013-05-01 02:59:00,43.3,29.0,30.37,SSW,202,0.0,-999.0,57,-99.99,,,0.00,weatherlink.com 1.10,2013-05-01 06:59:00,
2013-05-01 03:14:00,42.6,29.0,30.37,SSW,202,0.0,-999.0,58,-99.99,,,0.00,weatherlink.com 1.10,2013-05-01 07:14:00,
2013-05-01 03:29:00,42.3,29.0,30.37,SSW,202,0.0,-999.0,59,-99.99,,,0.00,weatherlink.com 1.10,2013-05-01 07:29:00,
2013-05-01 03:44:00,42.8,28.0,30.37,SSW,202,0.0,-999.0,57,-99.99,,,0.00,weatherlink.com 1.10,2013-05-01 07:44:00,
2013-05-01 03:59:00,42.1,29.0,30.37,SSW,197,0.0,-999.0,60,-99.99,,,0.00,weatherlink.com 1.10,2013-05-01 07:59:00,
2013-05-01 04:14:00,41.3,28.0,30.38,SSW,197,0.0,-999.0,60,-99.99,,,0.00,weatherlink.com 1.10,2013-05-01 08:14:00,
2013-05-01 04:29:00,41.3,28.0,30.39,SSW,197,0.0,-999.0,59,-99.99,,,0.00,weatherlink.com 1.10,2013-05-01 08:29:00,
2013-05-01 04:44:00,41.9,28.0,30.39,SSW,197,0.0,-999.0,59,-99.99,,,0.00,weatherlink.com 1.10,2013-05-01 08:44:00,
2013-05-01 04:59:00,41.7,28.0,30.39,SSW,196,0.0,-999.0,59,-99.99,,,0.00,weatherlink.com 1.10,2013-05-01 08:59:00,
2013-05-01 05:14:00,42.4,28.0,30.39,SSW,195,0.0,-999.0,57,-99.99,,,0.00,weatherlink.com 1.10,2013-05-01 09:14:00,
2013-05-01 05:29:00,41.8,29.0,30.40,SSW,195,0.0,-999.0,60,-99.99,,,0.00,weatherlink.com 1.10,2013-05-01 09:29:00,
2013-05-01 05:44:00,40.5,29.0,30.40,SSW,195,0.0,-999.0,63,-99.99,,,0.00,weatherlink.com 1.10,2013-05-01 09:44:00,
2013-05-01 05:59:00,40.6,28.0,30.40,SSW,195,0.0,-999.0,61,-99.99,,,0.00,weatherlink.com 1.10,2013-05-01 09:59:00,
2013-05-01 06:14:00,41.0,30.0,30.40,SSW,195,0.0,-999.0,65,-99.99,,,0.00,weatherlink.com 1.10,2013-05-01 10:14:00,
2013-05-01 06:29:00,40.7,28.0,30.42,SSW,195,0.0,-999.0,61,-99.99,,,0.00,weatherlink.com 1.10,2013-05-01 10:29:00,
2013-05-01 06:44:00,40.7,28.0,30.42,SSW,195,1.0,-999.0,62,-99.99,,,0.00,weatherlink.com 1.10,2013-05-01 10:44:00,
2013-05-01 06:59:00,41.2,29.0,30.43,SSW,195,0.0,-999.0,62,-99.99,,,0.00,weatherlink.com 1.10,2013-05-01 10:59:00,
2013-05-01 07:14:00,42.1,29.0,30.43,SSW,195,0.0,-999.0,59,-99.99,,,0.00,weatherlink.com 1.10,2013-05-01 11:14:00,
2013-05-01 07:29:00,43.3,29.0,30.43,SSW,195,0.0,-999.0,57,-99.99,,,0.00,weatherlink.com 1.10,2013-05-01 11:29:00,
2013-05-01 07:44:00,44.6,29.0,30.44,SSW,195,0.0,-999.0,55,-99.99,,,0.00,weatherlink.com 1.10,2013-05-01 11:44:00,
2013-05-01 07:59:00,46.9,30.0,30.44,South,191,0.0,-999.0,53,-99.99,,,0.00,weatherlink.com 1.10,2013-05-01 11:59:00,
2013-05-01 08:14:00,49.1,30.0,30.44,South,185,0.0,-999.0,48,-99.99,,,0.00,weatherlink.com 1.10,2013-05-01 12:14:00,
2013-05-01 08:29:00,51.0,29.0,30.45,NNE,27,0.0,-999.0,43,-99.99,,,0.00,weatherlink.com 1.10,2013-05-01 12:29:00,
2013-05-01 08:44:00,52.5,30.0,30.45,ENE,71,0.0,-999.0,43,-99.99,,,0.00,weatherlink.com 1.10,2013-05-01 12:44:00,
2013-05-01 08:59:00,53.8,30.0,30.45,NE,39,0.0,-999.0,41,-99.99,,,0.00,weatherlink.com 1.10,2013-05-01 12:59:00,
2013-05-01 09:14:00,55.0,30.0,30.45,NNE,24,0.0,-999.0,39,-99.99,,,0.00,weatherlink.com 1.10,2013-05-01 13:14:00,
2013-05-01 09:29:00,56.4,30.0,30.45,East,82,0.0,-999.0,37,-99.99,,,0.00,weatherlink.com 1.10,2013-05-01 13:29:00,
2013-05-01 09:44:00,58.4,27.0,30.46,ESE,110,0.0,-999.0,30,-99.99,,,0.00,weatherlink.com 1.10,2013-05-01 13:44:00,
2013-05-01 09:59:00,60.2,28.0,30.45,ESE,104,0.0,-999.0,29,-99.99,,,0.00,weatherlink.com 1.10,2013-05-01 13:59:00,
2013-05-01 10:14:00,61.2,25.0,30.46,ENE,70,0.0,-999.0,25,-99.99,,,0.00,weatherlink.com 1.10,2013-05-01 14:14:00,
2013-05-01 10:29:00,61.8,25.0,30.46,East,97,0.0,-999.0,25,-99.99,,,0.00,weatherlink.com 1.10,2013-05-01 14:29:00,
2013-05-01 10:44:00,62.7,27.0,30.46,East,95,0.0,-999.0,26,-99.99,,,0.00,weatherlink.com 1.10,2013-05-01 14:44:00,
2013-05-01 10:59:00,63.6,31.0,30.46,NE,55,2.0,-999.0,29,-99.99,,,0.00,weatherlink.com 1.10,2013-05-01 14:59:00,
2013-05-01 11:14:00,64.1,33.0,30.45,ENE,66,5.0,-999.0,31,-99.99,,,0.00,weatherlink.com 1.10,2013-05-01 15:14:00,
2013-05-01 11:29:00,63.8,32.0,30.45,East,88,1.0,-999.0,31,-99.99,,,0.00,weatherlink.com 1.10,2013-05-01 15:29:00,
2013-05-01 11:44:00,63.8,32.0,30.45,NE,52,2.0,-999.0,31,-99.99,,,0.00,weatherlink.com 1.10,2013-05-01 15:44:00,
2013-05-01 11:59:00,64.9,34.0,30.45,South,171,0.0,-999.0,32,-99.99,,,0.00,weatherlink.com 1.10,2013-05-01 15:59:00,
2013-05-01 12:14:00,65.7,33.0,30.44,SSW,204,2.0,-999.0,30,-99.99,,,0.00,weatherlink.com 1.10,2013-05-01 16:14:00,
2013-05-01 12:29:00,66.3,37.0,30.44,SSW,212,0.0,-999.0,34,-99.99,,,0.00,weatherlink.com 1.10,2013-05-01 16:29:00,
2013-05-01 12:44:00,67.2,35.0,30.44,ESE,106,0.0,-999.0,31,-99.99,,,0.00,weatherlink.com 1.10,2013-05-01 16:44:00,
2013-05-01 12:59:00,67.0,35.0,30.43,NE,55,0.0,-999.0,31,-99.99,,,0.00,weatherlink.com 1.10,2013-05-01 16:59:00,
2013-05-01 13:14:00,66.5,38.0,30.43,West,275,0.0,-999.0,35,-99.99,,,0.00,weatherlink.com 1.10,2013-05-01 17:14:00,
2013-05-01 13:29:00,66.7,37.0,30.43,ENE,68,1.0,-999.0,33,-99.99,,,0.00,weatherlink.com 1.10,2013-05-01 17:29:00,
2013-05-01 13:44:00,67.8,37.0,30.43,NNE,23,1.0,-999.0,32,-99.99,,,0.00,weatherlink.com 1.10,2013-05-01 17:44:00,
2013-05-01 13:59:00,68.0,36.0,30.43,ENE,78,2.0,-999.0,31,-99.99,,,0.00,weatherlink.com 1.10,2013-05-01 17:59:00,
2013-05-01 14:14:00,68.6,37.0,30.42,East,89,5.0,-999.0,31,-99.99,,,0.00,weatherlink.com 1.10,2013-05-01 18:14:00,
2013-05-01 14:29:00,70.6,43.0,30.42,WNW,285,4.0,-999.0,37,-99.99,,,0.00,weatherlink.com 1.10,2013-05-01 18:29:00,
2013-05-01 14:44:00,71.1,39.0,30.42,SSW,193,1.0,-999.0,31,-99.99,,,0.00,weatherlink.com 1.10,2013-05-01 18:44:00,
2013-05-01 14:59:00,70.7,41.0,30.41,SSW,201,0.0,-999.0,34,-99.99,,,0.00,weatherlink.com 1.10,2013-05-01 18:59:00,
2013-05-01 15:14:00,69.6,42.0,30.41,SW,232,0.0,-999.0,37,-99.99,,,0.00,weatherlink.com 1.10,2013-05-01 19:14:00,
2013-05-01 15:29:00,69.2,41.0,30.41,South,176,0.0,-999.0,36,-99.99,,,0.00,weatherlink.com 1.10,2013-05-01 19:29:00,
2013-05-01 15:44:00,68.7,42.0,30.41,South,187,0.0,-999.0,38,-99.99,,,0.00,weatherlink.com 1.10,2013-05-01 19:44:00,
2013-05-01 15:59:00,68.1,42.0,30.41,SSW,212,3.0,-999.0,39,-99.99,,,0.00,weatherlink.com 1.10,2013-05-01 19:59:00,
2013-05-01 16:14:00,67.5,42.0,30.41,SW,224,8.0,-999.0,40,-99.99,,,0.00,weatherlink.com 1.10,2013-05-01 20:14:00,
2013-05-01 16:29:00,67.0,42.0,30.41,WSW,243,0.0,-999.0,41,-99.99,,,0.00,weatherlink.com 1.10,2013-05-01 20:29:00,
2013-05-01 16:44:00,67.0,42.0,30.42,SW,218,0.0,-999.0,41,-99.99,,,0.00,weatherlink.com 1.10,2013-05-01 20:44:00,
2013-05-01 16:59:00,66.2,42.0,30.42,SSW,212,4.0,-999.0,42,-99.99,,,0.00,weatherlink.com 1.10,2013-05-01 20:59:00,
2013-05-01 17:14:00,65.8,41.0,30.42,South,187,1.0,-999.0,41,-99.99,,,0.00,weatherlink.com 1.10,2013-05-01 21:14:00,
2013-05-01 17:29:00,65.3,42.0,30.42,SW,235,1.0,-999.0,43,-99.99,,,0.00,weatherlink.com 1.10,2013-05-01 21:29:00,
2013-05-01 17:44:00,64.5,42.0,30.43,West,276,0.0,-999.0,44,-99.99,,,0.00,weatherlink.com 1.10,2013-05-01 21:44:00,
2013-05-01 17:59:00,63.5,42.0,30.43,SSE,147,0.0,-999.0,45,-99.99,,,0.00,weatherlink.com 1.10,2013-05-01 21:59:00,
2013-05-01 18:14:00,62.4,42.0,30.43,SSW,200,0.0,-999.0,47,-99.99,,,0.00,weatherlink.com 1.10,2013-05-01 22:14:00,
2013-05-01 18:29:00,61.8,42.0,30.43,WSW,237,0.0,-999.0,48,-99.99,,,0.00,weatherlink.com 1.10,2013-05-01 22:29:00,
2013-05-01 18:44:00,61.0,41.0,30.44,SW,228,0.0,-999.0,49,-99.99,,,0.00,weatherlink.com 1.10,2013-05-01 22:44:00,
2013-05-01 18:59:00,60.3,42.0,30.45,SW,225,0.0,-999.0,52,-99.99,,,0.00,weatherlink.com 1.10,2013-05-01 22:59:00,
2013-05-01 19:14:00,59.2,42.0,30.44,SW,221,0.0,-999.0,53,-99.99,,,0.00,weatherlink.com 1.10,2013-05-01 23:14:00,
2013-05-01 19:29:00,58.5,42.0,30.45,SW,221,0.0,-999.0,55,-99.99,,,0.00,weatherlink.com 1.10,2013-05-01 23:29:00,
2013-05-01 19:44:00,57.6,43.0,30.45,SW,222,0.0,-999.0,58,-99.99,,,0.00,weatherlink.com 1.10,2013-05-01 23:44:00,
2013-05-01 19:59:00,56.6,43.0,30.45,SW,222,0.0,-999.0,60,-99.99,,,0.00,weatherlink.com 1.10,2013-05-01 23:59:00,
2013-05-01 20:14:00,55.7,43.0,30.46,SW,221,0.0,-999.0,62,-99.99,,,0.00,weatherlink.com 1.10,2013-05-02 00:14:00,
2013-05-01 20:29:00,55.0,42.0,30.46,SW,221,0.0,-999.0,63,-99.99,,,0.00,weatherlink.com 1.10,2013-05-02 00:29:00,
2013-05-01 20:44:00,54.0,43.0,30.46,SW,221,0.0,-999.0,66,-99.99,,,0.00,weatherlink.com 1.10,2013-05-02 00:44:00,
2013-05-01 20:59:00,53.2,43.0,30.47,SW,222,0.0,-999.0,68,-99.99,,,0.00,weatherlink.com 1.10,2013-05-02 00:59:00,
2013-05-01 21:14:00,52.4,43.0,30.48,SW,222,0.0,-999.0,70,-99.99,,,0.00,weatherlink.com 1.10,2013-05-02 01:14:00,
2013-05-01 21:29:00,51.5,43.0,30.48,SW,221,0.0,-999.0,73,-99.99,,,0.00,weatherlink.com 1.10,2013-05-02 01:29:00,
2013-05-01 21:44:00,50.9,43.0,30.48,SW,221,0.0,-999.0,74,-99.99,,,0.00,weatherlink.com 1.10,2013-05-02 01:44:00,
2013-05-01 21:59:00,50.0,42.0,30.49,SW,222,0.0,-999.0,75,-99.99,,,0.00,weatherlink.com 1.10,2013-05-02 01:59:00,
2013-05-01 22:14:00,50.1,43.0,30.49,SW,222,0.0,-999.0,76,-99.99,,,0.00,weatherlink.com 1.10,2013-05-02 02:14:00,
2013-05-01 22:29:00,49.5,43.0,30.49,SW,222,0.0,-999.0,77,-99.99,,,0.00,weatherlink.com 1.10,2013-05-02 02:29:00,
2013-05-01 22:44:00,48.8,42.0,30.49,SW,222,0.0,-999.0,78,-99.99,,,0.00,weatherlink.com 1.10,2013-05-02 02:44:00,
2013-05-01 22:59:00,48.0,42.0,30.49,SW,221,0.0,-999.0,81,-99.99,,,0.00,weatherlink.com 1.10,2013-05-02 02:59:00,
2013-05-01 23:14:00,48.1,43.0,30.48,SW,221,0.0,-999.0,81,-99.99,,,0.00,weatherlink.com 1.10,2013-05-02 03:14:00,
2013-05-01 23:29:00,48.2,42.0,30.48,SW,221,0.0,-999.0,80,-99.99,,,0.00,weatherlink.com 1.10,2013-05-02 03:29:00,
2013-05-01 23:44:00,48.4,43.0,30.47,SW,222,0.0,-999.0,80,-99.99,,,0.00,weatherlink.com 1.10,2013-05-02 03:44:00,
2013-05-01 23:59:00,48.4,42.0,30.47,SW,222,0.0,-999.0,77,-99.99,,,0.00,weatherlink.com 1.10,2013-05-02 03:59:00,